Bookmark and Share
Track history (hours):
 

MSC Brianna

Last reported at 2013-Mar-05 03:03 UTC. Time now 2014-Apr-24 06:03 UTC.
Position N 26°33' E 056°29'.
Warning: this ship's position is years out of date!

Length 245 m; draft 12.4 m.

Type: Ship (hazmat cat A). MMSI: 351766000.

NotesDate/timePositionNaut miles runAvg speedWind from/ knotsBaromVisibWave heightAir tempDewpointWater temp
2013-Mar-05 03:03N 26°33' E 056°29'1516.7
2013-Mar-05 02:09N 26°27' E 056°14'1016.4
2013-Mar-05 01:32N 26°23' E 056°04'1616.2
2013-Mar-05 00:33N 26°16' E 055°48'3715.9
2013-Mar-04 22:14N 25°50' E 055°19'1115.9
2013-Mar-04 21:33N 25°42' E 055°11'1816.2
2013-Mar-04 20:27N 25°28' E 054°58'1415.8
2013-Mar-04 19:33N 25°15' E 054°54'1313.2
2013-Mar-04 18:33N 25°03' E 055°01'2 2.1
2013-Mar-04 17:27N 25°01' E 055°03'0 0.0
2013-Mar-04 16:33N 25°01' E 055°03'0 0.0
2013-Mar-04 15:33N 25°01' E 055°03'0 0.0
2013-Mar-04 14:33N 25°01' E 055°03'0 0.0
2013-Mar-04 13:34N 25°01' E 055°03'0 0.0
2013-Mar-04 12:32N 25°01' E 055°03'0 0.0
2013-Mar-04 03:16N 25°01' E 055°03'0 0.0
2013-Mar-04 02:30N 25°01' E 055°03'0 0.0
2013-Mar-04 01:33N 25°01' E 055°03'0 0.0
2013-Mar-04 00:32N 25°01' E 055°03'0 0.0
2013-Mar-03 23:20N 25°01' E 055°03'0 0.0
2013-Mar-03 22:29N 25°01' E 055°03'2 2.5
2013-Mar-03 21:33N 25°03' E 055°01'9 8.6
2013-Mar-03 20:34N 25°09' E 054°55'0 0.4
2013-Mar-03 19:34N 25°10' E 054°55'6 6.3
2013-Mar-03 18:33N 25°16' E 054°54'1616.3
2013-Mar-03 17:33N 25°29' E 054°43'1716.7
2013-Mar-03 16:34N 25°42' E 054°32'1716.6
2013-Mar-03 15:34N 25°54' E 054°19'1616.2
2013-Mar-03 14:33N 26°04' E 054°05'  
2013-Feb-28 11:17N 26°38' E 050°19'17611.7
2013-Feb-27 20:14N 26°19' E 053°35'1114.2
2013-Feb-27 19:28N 26°14' E 053°46'1814.3
2013-Feb-27 18:13N 26°04' E 054°02'1014.4
2013-Feb-27 17:32N 25°57' E 054°09'1313.4
2013-Feb-27 16:33N 25°51' E 054°22'1614.8
2013-Feb-27 15:28N 25°39' E 054°34'1415.0
2013-Feb-27 14:33N 25°28' E 054°43'1514.7
2013-Feb-27 13:33N 25°16' E 054°53'1313.0
2013-Feb-27 12:33N 25°05' E 054°59'5 0.8
2013-Feb-27 06:16N 25°01' E 055°03'0 0.0
2013-Feb-27 04:24N 25°01' E 055°03'0 0.0
2013-Feb-27 00:04N 25°01' E 055°03'0 0.0
2013-Feb-26 23:31N 25°01' E 055°03'0 0.0
2013-Feb-26 22:31N 25°01' E 055°03'0 0.0
2013-Feb-26 21:33N 25°01' E 055°03'0 0.0
2013-Feb-26 20:12N 25°01' E 055°03'0 0.0
2013-Feb-26 19:29N 25°01' E 055°03'0 0.0
2013-Feb-26 18:17N 25°01' E 055°03'0 0.0
2013-Feb-26 17:25N 25°01' E 055°03'0 0.0
2013-Feb-26 16:31N 25°01' E 055°03'6 5.8
2013-Feb-26 15:33N 25°05' E 054°59'6 5.6
2013-Feb-26 14:33N 25°10' E 054°56'5 4.9
2013-Feb-26 13:32N 25°15' E 054°53'  

Dump ship's entire track history

sailing weather and tide predictions

MSC Brianna — 3FXG7 — position and weather